Terminal Aerodrome Forecast
Issued by NWS

Current Version | Previous Version | Graphics & Text | Print | Product List | Glossary On
Versions: 1 2 3 4 5 6 7 8 9 10 11 12 13 14 15 16 17 18 19 20 21 22 23 24 25
986
FTUS41 KPBZ 282010 AAB
TAFMGW
TAF AMD
KMGW 282010Z 2820/2918 28005KT P6SM VCSH BKN025
      TEMPO 2820/2821 2SM -SHRA
     FM290000 34006KT P6SM OVC008
     FM290900 35005KT P6SM BKN015
     FM291700 36005KT P6SM FEW150=

USA.gov is the U.S. government's official web portal to all federal, state and local government web resources and services.